Patrick AFB, Florida
Current Conditions -  °F | °C
As of 7:58 AM on Sunday 21 Dec 2014 (Local Time) from KCOF Reporting Station
Clear Clear  
Wind Chill: 64°   Ceiling: Unl
Heat Index: 64°   Visibility: 10mi
Dew Point: 62°   Wind: 0mph
Humidity: 95%   Direction: NA
Pressure: 30.09"   Gusts: NA
Location:  28.22°N, 80.61°W
Report Text: KCOF 211258Z AUTO 00000KT 10SM CLR 18/17 A3009 RMK AO2 SLP194 T01770169
Loading
Personal Weather Stations






























Interactive Weather Map New forecast layout! Learn more

10-Day Weather Forecast

Advertisements
Track Severe Weather on mobile